Flight Track Log - Related Links

Times and Time Zones

All times are in EDT time to prevent confusion due to time zone crossing. See the SKW5631 flight status page for this flight to view local times or setup timezone preferences in your user account.

Time Position Orientation Groundspeed Altitude Reporting Facility
EDT Latitude Longitude Course Direction KTS MPH feet Rate Location/Type
Sun 06:18:47 PM 39.5333 -119.7667 254° West 174 200 5,500  Level Northern TRACON
Sun 06:19:47 PM 39.6000 -119.8000 339° North 237 273 7,400 1,900 Climbing Northern TRACON
Sun 06:20:47 PM 39.6667 -119.8167 349° North 284 327 9,300 2,049 Climbing Northern TRACON
Sun 06:21:00 PM 39.4669 -119.9488 255° West  Level FlightAware
Sun 06:21:09 PM 39.6903 -119.8189 356° North 280 322 10,200  Level Oakland Center
Sun 06:22:00 PM 39.4459 -120.0911 258° West  Level FlightAware
Sun 06:22:10 PM 39.7661 -119.8606 337° Northwest 293 337 12,800  Level Oakland Center
Sun 06:23:00 PM 39.4193 -120.2316 254° West  Level FlightAware
Sun 06:23:12 PM 39.7717 -119.9619 274° West 295 339 15,400  Level Oakland Center
Sun 06:24:00 PM 39.3950 -120.3440 254° West  Level FlightAware
Sun 06:24:13 PM 39.7406 -120.0672 249° West 315 362 17,700  Level Oakland Center
Sun 06:25:15 PM 39.6947 -120.1964 245° Southwest 341 392 19,700 2,049 Climbing Oakland Center
Sun 06:26:16 PM 39.6583 -120.3136 248° West 350 403 21,900 2,049 Climbing Oakland Center
Sun 06:27:18 PM 39.6194 -120.4281 246° West 348 400 23,900 1,694 Climbing Oakland Center
Sun 06:28:20 PM 39.5808 -120.5464 247° West 355 409 25,400 1,268 Climbing Oakland Center
Sun 06:29:21 PM 39.5286 -120.6683 241° Southwest 383 441 26,500 1,122 Climbing Oakland Center
Sun 06:30:23 PM 39.4581 -120.7769 230° Southwest 398 458 27,700 732 Climbing Oakland Center
Sun 06:31:24 PM 39.3844 -120.8919 230° Southwest 408 470 28,000 146 Climbing Oakland Center
Sun 06:32:26 PM 39.2878 -121.0414 230° Southwest 444 511 28,000  Level Oakland Center
Sun 06:33:27 PM 39.2050 -121.1706 230° Southwest 461 531 28,000  Level Oakland Center
Sun 06:34:29 PM 39.1236 -121.2978 231° Southwest 464 534 28,000  Level Oakland Center
Sun 06:35:30 PM 39.0417 -121.4231 230° Southwest 463 533 28,000  Level Oakland Center
Sun 06:36:32 PM 38.9617 -121.5475 230° Southwest 458 527 28,000  Level Oakland Center
Sun 06:37:33 PM 38.8803 -121.6700 230° Southwest 456 525 28,000  Level Oakland Center
Sun 06:38:35 PM 38.7997 -121.7928 230° Southwest 455 524 28,000  Level Oakland Center
Sun 06:39:36 PM 38.7031 -121.9383 230° Southwest 451 519 28,000  Level Oakland Center
Sun 06:40:38 PM 38.6206 -122.0639 230° Southwest 449 517 28,000  Level Oakland Center
Sun 06:41:39 PM 38.5403 -122.1850 230° Southwest 448 516 28,000 -195 Level Oakland Center
Sun 06:42:41 PM 38.4600 -122.3053 230° Southwest 448 516 27,600 -1,756 Descending Oakland Center
Sun 06:43:42 PM 38.3769 -122.4281 229° Southwest 459 528 24,400 -3,024 Descending Oakland Center
Sun 06:44:44 PM 38.2978 -122.5469 230° Southwest 447 514 21,400 -2,878 Descending Oakland Center
Sun 06:45:45 PM 38.2217 -122.6597 229° Southwest 429 494 18,500 -2,902 Descending Oakland Center
Sun 06:46:46 PM 38.1464 -122.7692 229° Southwest 421 484 15,500 -2,927 Descending Oakland Center
Sun 06:47:48 PM 38.0258 -122.8006 192° South 400 460 12,500 -2,195 Descending Oakland Center
Sun 06:48:49 PM 37.9397 -122.7183 143° Southeast 392 451 11,000 -780 Descending Oakland Center
Sun 06:49:51 PM 37.8583 -122.6306 140° Southeast 400 460 10,900  Descending Oakland Center
Sun 06:50:18 PM 37.8167 -122.5833 138° Southeast 393 452 11,000 69 Climbing Northern TRACON
Sun 06:51:18 PM 37.7333 -122.5000 142° Southeast 334 384 11,000  Level Northern TRACON
Sun 06:52:13 PM 37.6833 -122.4333 133° Southeast 271 312 11,000  Level Northern TRACON
Sun 06:53:13 PM 37.6167 -122.3833 149° Southeast 261 300 11,000 -173 Level Northern TRACON
Sun 06:53:57 PM 37.5817 -122.3453 139° Southeast 267 307 10,700 -629 Descending Oakland Center
Sun 06:54:58 PM 37.5156 -122.3025 153° Southeast 270 311 9,900 -787 Descending Oakland Center
Sun 06:55:59 PM 37.4492 -122.2603 153° Southeast 268 308 9,100 -488 Descending Oakland Center
Sun 06:57:01 PM 37.3864 -122.2211 154° Southeast 254 292 8,900 -98 Descending Oakland Center
Sun 06:58:02 PM 37.3169 -122.2272 184° South 266 306 8,900 -492 Level Oakland Center
Sun 06:59:03 PM 37.2478 -122.2456 192° South 259 298 7,900 -488 Descending Oakland Center
Sun 07:00:05 PM 37.2314 -122.3200 255° West 243 280 7,900 -488 Level Oakland Center
Sun 07:01:06 PM 37.2317 -122.4214 270° West 241 277 6,900 -780 Descending Oakland Center
Sun 07:02:08 PM 37.2803 -122.4625 326° Northwest 232 267 6,300 -488 Descending Oakland Center
Sun 07:03:09 PM 37.3239 -122.4267 33° Northeast 238 274 5,900 -197 Descending Oakland Center
Sun 07:04:10 PM 37.3406 -122.3447 76° East 242 278 5,900  Level Oakland Center
Sun 07:05:12 PM 37.3561 -122.2664 76° East 236 272 5,900 -390 Level Oakland Center
Sun 07:06:13 PM 37.4061 -122.2211 36° Northeast 235 270 5,100 -878 Descending Oakland Center
Sun 07:07:15 PM 37.4639 -122.1894 24° Northeast 230 265 4,100 -732 Descending Oakland Center
Sun 07:08:16 PM 37.5142 -122.1581 26° Northeast 219 252 3,600 -492 Descending Oakland Center

Login

Don't have an account? Register now (free) for customized features, flight alerts, and more!